Time;durP1;ratioP1;P1;durP2;ratioP2;P2;SDS_P1;SDS_P2;PMS_P1;PMS_P2;Temp;Humidity;BMP_temperature;BMP_pressure;BME280_temperature;BME280_humidity;BME280_pressure;Samples;Min_cycle;Max_cycle;Signal;HPM_P1;HPM_P2
2022/12/29 00:01:06;;;;;;;;;;;17.20;82.50;;;;;;5115104;28;20006;-45
2022/12/29 00:03:32;;;;;;;;;;;17.30;82.60;;;;;;5114879;28;19933;-44
2022/12/29 00:05:58;;;;;;;;;;;17.30;82.60;;;;;;5115284;28;19914;-44
2022/12/29 00:08:39;;;;;;;;;;;17.20;82.60;;;;;;5114925;28;19908;-43
2022/12/29 00:11:15;;;;;;;;;;;17.20;82.60;;;;;;5114991;28;19961;-43
2022/12/29 00:16:25;;;;;;;;;;;17.20;82.70;;;;;;5114642;28;19986;-44
2022/12/29 00:18:51;;;;;;;;;;;17.20;82.70;;;;;;5114822;28;19912;-42
2022/12/29 00:35:08;;;;;;;;;;;17.20;82.60;;;;;;5114362;28;20322;-44
2022/12/29 00:45:48;;;;;;;;;;;17.20;82.40;;;;;;5114308;28;19915;-44
2022/12/29 00:48:13;;;;;;;;;;;17.30;82.40;;;;;;5096183;28;19908;-43
2022/12/29 00:50:38;;;;;;;;;;;17.30;82.40;;;;;;5096185;28;19961;-43
2022/12/29 00:53:04;;;;;;;;;;;17.20;82.30;;;;;;5114471;28;19908;-43
2022/12/29 00:55:29;;;;;;;;;;;17.30;82.40;;;;;;5114419;28;20320;-42
2022/12/29 00:57:55;;;;;;;;;;;17.30;82.40;;;;;;5114081;28;19907;-43
2022/12/29 01:00:20;;;;;;;;;;;17.20;82.40;;;;;;5114336;28;19908;-45
2022/12/29 01:02:46;;;;;;;;;;;17.30;82.40;;;;;;5114039;28;19915;-43
2022/12/29 01:05:11;;;;;;;;;;;17.30;82.40;;;;;;5096145;28;19914;-46
2022/12/29 01:07:37;;;;;;;;;;;17.30;82.50;;;;;;5114263;28;19951;-44
2022/12/29 01:10:11;;;;;;;;;;;17.20;82.50;;;;;;5113963;28;20350;-45
2022/12/29 01:12:40;;;;;;;;;;;17.20;82.50;;;;;;5095955;28;20355;-43
2022/12/29 01:15:06;;;;;;;;;;;17.30;82.50;;;;;;5114146;28;19916;-45
2022/12/29 01:17:31;;;;;;;;;;;17.20;82.50;;;;;;5114192;28;20266;-46
2022/12/29 01:19:57;;;;;;;;;;;17.20;82.50;;;;;;5114108;28;19907;-43
2022/12/29 01:22:22;;;;;;;;;;;17.20;82.60;;;;;;5113882;28;19908;-43
2022/12/29 01:24:48;;;;;;;;;;;17.20;82.60;;;;;;5114121;28;19907;-44
2022/12/29 01:27:14;;;;;;;;;;;17.20;82.60;;;;;;5113970;28;19908;-42
2022/12/29 01:29:39;;;;;;;;;;;17.20;82.60;;;;;;5113833;28;20041;-43
2022/12/29 01:32:05;;;;;;;;;;;17.20;82.70;;;;;;5114087;28;19908;-42
2022/12/29 01:34:30;;;;;;;;;;;17.20;82.70;;;;;;5095389;28;19957;-42
2022/12/29 01:36:56;;;;;;;;;;;17.20;82.60;;;;;;5114236;28;19915;-43
2022/12/29 01:39:21;;;;;;;;;;;17.20;82.60;;;;;;5114072;28;19926;-44
2022/12/29 01:41:47;;;;;;;;;;;17.20;82.50;;;;;;5113434;28;20050;-43
2022/12/29 01:44:31;;;;;;;;;;;17.30;82.40;;;;;;5116611;28;19947;-44
2022/12/29 01:46:56;;;;;;;;;;;17.40;82.30;;;;;;5117242;28;19907;-43
2022/12/29 01:49:24;;;;;;;;;;;17.60;82.00;;;;;;5117283;28;19930;-43
2022/12/29 01:51:52;;;;;;;;;;;17.60;81.70;;;;;;5117561;28;19912;-42
2022/12/29 01:54:22;;;;;;;;;;;17.70;81.40;;;;;;5117364;28;20006;-45
2022/12/29 01:56:47;;;;;;;;;;;17.80;81.30;;;;;;5117320;28;19922;-44
2022/12/29 01:59:17;;;;;;;;;;;17.80;81.20;;;;;;5117751;28;20266;-42
2022/12/29 02:01:43;;;;;;;;;;;17.80;81.10;;;;;;5116981;28;20334;-43
2022/12/29 02:04:11;;;;;;;;;;;17.80;81.10;;;;;;5098766;28;20002;-43
2022/12/29 02:06:46;;;;;;;;;;;17.80;81.10;;;;;;5117304;28;19908;-43
2022/12/29 02:09:11;;;;;;;;;;;17.80;81.10;;;;;;5117236;28;19954;-45
2022/12/29 02:11:38;;;;;;;;;;;17.80;81.10;;;;;;5098995;28;19912;-43
2022/12/29 02:14:10;;;;;;;;;;;17.80;81.10;;;;;;5116830;28;19915;-44
2022/12/29 02:16:59;;;;;;;;;;;17.70;81.70;;;;;;5116751;28;19945;-43
2022/12/29 02:19:25;;;;;;;;;;;17.70;81.20;;;;;;5117103;28;19908;-43
2022/12/29 02:22:02;;;;;;;;;;;17.60;81.30;;;;;;5116975;28;19960;-42
2022/12/29 02:24:45;;;;;;;;;;;17.60;81.30;;;;;;5117056;28;19907;-44
2022/12/29 02:27:26;;;;;;;;;;;17.60;81.50;;;;;;5116673;28;19912;-43
2022/12/29 02:29:51;;;;;;;;;;;17.60;81.50;;;;;;5098486;28;19933;-42
2022/12/29 02:32:35;;;;;;;;;;;17.50;81.50;;;;;;5116799;28;19915;-42
2022/12/29 02:35:06;;;;;;;;;;;17.50;81.60;;;;;;5116594;28;19920;-42
2022/12/29 02:37:40;;;;;;;;;;;17.50;81.70;;;;;;5116328;28;19939;-44
2022/12/29 02:40:18;;;;;;;;;;;17.50;81.80;;;;;;5116705;28;19907;-44
2022/12/29 02:42:44;;;;;;;;;;;17.50;81.80;;;;;;5116540;28;19908;-44
2022/12/29 02:45:14;;;;;;;;;;;17.40;81.90;;;;;;5098249;28;19908;-43
2022/12/29 02:47:42;;;;;;;;;;;17.40;81.90;;;;;;5116011;28;19957;-43
2022/12/29 02:50:23;;;;;;;;;;;17.40;82.00;;;;;;5116162;28;19912;-44
2022/12/29 02:52:59;;;;;;;;;;;17.40;82.10;;;;;;5116359;28;19908;-45
2022/12/29 02:55:25;;;;;;;;;;;17.30;82.10;;;;;;5097717;28;20355;-43
2022/12/29 02:58:12;;;;;;;;;;;17.30;82.10;;;;;;5116039;28;19915;-45
2022/12/29 03:00:42;;;;;;;;;;;17.30;82.20;;;;;;5116024;28;19915;-44
2022/12/29 03:03:14;;;;;;;;;;;17.20;82.20;;;;;;5115841;28;19923;-45
2022/12/29 03:05:59;;;;;;;;;;;17.30;82.30;;;;;;5115936;28;20376;-44
2022/12/29 03:08:39;;;;;;;;;;;17.20;82.30;;;;;;5115701;28;19908;-42
2022/12/29 03:12:07;;;;;;;;;;;17.30;82.40;;;;;;5116089;28;20046;-43
2022/12/29 03:16:43;;;;;;;;;;;17.30;82.40;;;;;;5115876;28;19965;-44
2022/12/29 03:19:18;;;;;;;;;;;17.30;82.30;;;;;;5097696;28;19914;-42
2022/12/29 03:24:32;;;;;;;;;;;17.20;82.30;;;;;;5115659;28;19962;-42
2022/12/29 03:27:02;;;;;;;;;;;17.30;82.30;;;;;;5115419;28;19915;-43
2022/12/29 03:29:29;;;;;;;;;;;17.30;82.30;;;;;;5115695;28;20050;-43
2022/12/29 03:31:55;;;;;;;;;;;17.30;82.20;;;;;;5115676;28;19958;-42
2022/12/29 03:34:21;;;;;;;;;;;17.30;82.20;;;;;;5115651;28;19908;-43
2022/12/29 03:36:52;;;;;;;;;;;17.30;82.20;;;;;;5115458;28;19977;-43
2022/12/29 03:39:20;;;;;;;;;;;17.30;82.20;;;;;;5115747;28;20327;-44
2022/12/29 03:41:46;;;;;;;;;;;17.30;82.30;;;;;;5115484;28;19908;-43
2022/12/29 03:44:12;;;;;;;;;;;17.30;82.30;;;;;;5115434;28;19915;-45
2022/12/29 03:46:38;;;;;;;;;;;17.30;82.30;;;;;;5115442;28;19908;-45
2022/12/29 03:49:03;;;;;;;;;;;17.30;82.40;;;;;;5115052;28;19908;-43
2022/12/29 03:51:29;;;;;;;;;;;17.30;82.40;;;;;;5097016;28;20378;-43
2022/12/29 03:53:54;;;;;;;;;;;17.20;82.30;;;;;;5097015;28;20354;-42
2022/12/29 03:56:20;;;;;;;;;;;17.20;82.40;;;;;;5115149;28;19916;-43
2022/12/29 03:58:45;;;;;;;;;;;17.20;82.40;;;;;;5114855;28;20358;-43
2022/12/29 04:01:11;;;;;;;;;;;17.20;82.40;;;;;;5115149;28;19908;-46
2022/12/29 04:03:36;;;;;;;;;;;17.10;82.40;;;;;;5115109;28;20304;-45
2022/12/29 04:06:02;;;;;;;;;;;17.10;82.40;;;;;;5096115;28;19908;-45
2022/12/29 04:08:27;;;;;;;;;;;17.20;82.50;;;;;;5114941;28;19976;-45
2022/12/29 04:10:53;;;;;;;;;;;17.20;82.50;;;;;;5114664;28;19908;-42
2022/12/29 04:13:18;;;;;;;;;;;17.10;82.50;;;;;;5114878;28;19915;-43
2022/12/29 04:15:45;;;;;;;;;;;17.20;82.50;;;;;;5114808;28;20350;-45
2022/12/29 04:18:10;;;;;;;;;;;17.20;82.50;;;;;;5114816;28;19908;-43
2022/12/29 04:23:20;;;;;;;;;;;17.20;82.40;;;;;;5114581;28;20050;-43
2022/12/29 04:25:47;;;;;;;;;;;17.20;82.40;;;;;;5096518;28;19953;-45
2022/12/29 04:28:13;;;;;;;;;;;17.20;82.40;;;;;;5096530;28;19915;-42
2022/12/29 04:30:38;;;;;;;;;;;17.20;82.30;;;;;;5114407;28;19908;-44
2022/12/29 04:33:04;;;;;;;;;;;17.30;82.40;;;;;;5114517;28;19915;-43
2022/12/29 04:35:29;;;;;;;;;;;17.30;82.40;;;;;;5114648;28;19969;-46
2022/12/29 04:37:54;;;;;;;;;;;17.30;82.40;;;;;;5114008;28;20458;-43
2022/12/29 04:40:20;;;;;;;;;;;17.30;82.40;;;;;;5114611;28;19931;-43
2022/12/29 04:42:47;;;;;;;;;;;17.30;82.40;;;;;;5113455;28;21255;-46
2022/12/29 04:45:13;;;;;;;;;;;17.30;82.40;;;;;;5114601;28;19947;-43
2022/12/29 04:47:38;;;;;;;;;;;17.30;82.40;;;;;;5114336;28;19957;-43
2022/12/29 04:50:04;;;;;;;;;;;17.20;82.30;;;;;;5114763;28;19907;-43
2022/12/29 04:52:30;;;;;;;;;;;17.20;82.30;;;;;;5114371;28;19908;-46
2022/12/29 04:54:55;;;;;;;;;;;17.20;82.40;;;;;;5114312;28;19907;-44
2022/12/29 04:57:20;;;;;;;;;;;17.20;82.40;;;;;;5114394;28;20010;-44
2022/12/29 04:59:46;;;;;;;;;;;17.20;82.40;;;;;;5114451;28;20330;-42
2022/12/29 05:02:11;;;;;;;;;;;17.20;82.40;;;;;;5114332;28;19999;-43
2022/12/29 05:04:37;;;;;;;;;;;17.10;82.40;;;;;;5114003;28;19908;-44
2022/12/29 05:07:02;;;;;;;;;;;17.20;82.50;;;;;;5113989;28;19908;-44
2022/12/29 05:09:29;;;;;;;;;;;17.20;82.50;;;;;;5095689;28;20378;-47
2022/12/29 05:11:55;;;;;;;;;;;17.20;83.00;;;;;;5095926;28;19991;-42
2022/12/29 05:14:20;;;;;;;;;;;17.10;82.50;;;;;;5114095;28;20004;-42
2022/12/29 05:16:46;;;;;;;;;;;17.10;82.50;;;;;;5114266;28;20417;-43
2022/12/29 05:19:11;;;;;;;;;;;17.10;82.50;;;;;;5117905;28;20010;-43
2022/12/29 05:21:37;;;;;;;;;;;17.10;82.50;;;;;;5117830;28;19965;-44
2022/12/29 05:24:02;;;;;;;;;;;17.10;82.50;;;;;;5118143;28;19908;-43
2022/12/29 05:26:28;;;;;;;;;;;17.10;82.50;;;;;;5118027;28;19943;-43
2022/12/29 05:28:53;;;;;;;;;;;17.10;82.50;;;;;;5118080;28;19998;-42
2022/12/29 05:31:19;;;;;;;;;;;17.20;82.50;;;;;;5099746;28;19912;-43
2022/12/29 05:33:44;;;;;;;;;;;17.20;82.50;;;;;;5117912;28;20377;-43
2022/12/29 05:36:10;;;;;;;;;;;17.10;82.40;;;;;;5117794;28;19915;-46
2022/12/29 05:38:35;;;;;;;;;;;17.20;82.50;;;;;;5117976;28;19919;-45
2022/12/29 05:41:01;;;;;;;;;;;17.20;82.50;;;;;;5099536;28;19912;-43
2022/12/29 05:43:26;;;;;;;;;;;17.20;82.40;;;;;;5117468;28;19915;-46
2022/12/29 05:45:52;;;;;;;;;;;17.20;82.40;;;;;;5117300;28;19955;-43
2022/12/29 05:48:17;;;;;;;;;;;17.20;82.40;;;;;;5117425;28;19985;-45
2022/12/29 05:50:46;;;;;;;;;;;17.20;82.50;;;;;;5117254;28;19907;-42
2022/12/29 05:53:12;;;;;;;;;;;17.20;82.90;;;;;;5117270;28;19908;-45
2022/12/29 05:55:37;;;;;;;;;;;17.20;82.50;;;;;;5117563;28;20274;-42
2022/12/29 05:58:03;;;;;;;;;;;17.10;82.40;;;;;;5099161;28;19911;-43
2022/12/29 06:00:28;;;;;;;;;;;17.20;82.50;;;;;;5117117;28;19915;-44
2022/12/29 06:02:53;;;;;;;;;;;17.10;82.40;;;;;;5117370;28;19907;-43
2022/12/29 06:05:19;;;;;;;;;;;17.10;82.40;;;;;;5116992;28;20328;-46
2022/12/29 06:07:45;;;;;;;;;;;17.20;82.50;;;;;;5116778;28;19987;-43
2022/12/29 06:10:11;;;;;;;;;;;17.10;82.40;;;;;;5117099;28;19908;-46
2022/12/29 06:12:36;;;;;;;;;;;17.10;82.50;;;;;;5117050;28;19931;-44
2022/12/29 06:15:02;;;;;;;;;;;17.20;82.60;;;;;;5116911;28;20250;-43
2022/12/29 06:17:27;;;;;;;;;;;17.10;82.50;;;;;;5117036;28;19930;-43
2022/12/29 06:19:52;;;;;;;;;;;17.10;82.50;;;;;;5116788;28;20266;-43
2022/12/29 06:22:18;;;;;;;;;;;17.10;82.50;;;;;;5116615;28;19943;-45
2022/12/29 06:24:43;;;;;;;;;;;17.10;82.50;;;;;;5116936;28;19908;-44
2022/12/29 06:27:09;;;;;;;;;;;17.10;82.50;;;;;;5116557;28;19998;-44
2022/12/29 06:29:36;;;;;;;;;;;17.10;82.50;;;;;;5115806;28;19908;-45
2022/12/29 06:32:02;;;;;;;;;;;17.10;82.50;;;;;;5116414;28;19912;-43
2022/12/29 06:34:28;;;;;;;;;;;17.10;82.50;;;;;;5116281;28;19970;-44
2022/12/29 06:36:54;;;;;;;;;;;17.10;82.50;;;;;;5116497;28;19916;-43
2022/12/29 06:39:19;;;;;;;;;;;17.10;82.50;;;;;;5116250;28;19931;-43
2022/12/29 06:41:45;;;;;;;;;;;17.10;82.50;;;;;;5116341;28;19955;-44
2022/12/29 06:44:10;;;;;;;;;;;17.10;82.50;;;;;;5116653;28;19908;-43
2022/12/29 06:46:36;;;;;;;;;;;17.10;82.50;;;;;;5116368;28;19915;-44
2022/12/29 06:49:01;;;;;;;;;;;17.10;82.50;;;;;;5116690;28;19991;-43
2022/12/29 06:51:27;;;;;;;;;;;17.10;82.50;;;;;;5116444;28;19908;-43
2022/12/29 06:53:52;;;;;;;;;;;17.10;82.50;;;;;;5115998;28;20315;-45
2022/12/29 06:56:18;;;;;;;;;;;17.10;82.50;;;;;;5116136;28;19966;-42
2022/12/29 06:58:43;;;;;;;;;;;17.10;82.50;;;;;;5116529;28;19915;-44
2022/12/29 07:01:08;;;;;;;;;;;17.10;82.50;;;;;;5097797;28;19951;-45
2022/12/29 07:03:34;;;;;;;;;;;17.10;82.50;;;;;;5116215;28;20354;-44
2022/12/29 07:05:59;;;;;;;;;;;17.20;82.50;;;;;;5115820;28;20396;-44
2022/12/29 07:08:25;;;;;;;;;;;17.20;83.00;;;;;;5115751;28;19908;-43
2022/12/29 07:10:50;;;;;;;;;;;17.20;82.50;;;;;;5116358;28;19947;-43
2022/12/29 07:13:16;;;;;;;;;;;17.20;82.50;;;;;;5115658;28;19908;-43
2022/12/29 07:15:41;;;;;;;;;;;17.20;82.50;;;;;;5097379;28;20385;-43
2022/12/29 07:18:07;;;;;;;;;;;17.20;82.50;;;;;;5115741;28;20227;-44
2022/12/29 07:20:32;;;;;;;;;;;17.10;82.50;;;;;;5115646;28;19908;-43
2022/12/29 07:22:58;;;;;;;;;;;17.20;82.50;;;;;;5115554;28;19915;-42
2022/12/29 07:25:23;;;;;;;;;;;17.20;82.50;;;;;;5115601;28;19908;-42
2022/12/29 07:27:49;;;;;;;;;;;17.20;82.50;;;;;;5115660;28;19912;-44
2022/12/29 07:30:15;;;;;;;;;;;17.20;82.50;;;;;;5115395;28;20263;-45
2022/12/29 07:32:40;;;;;;;;;;;17.10;82.50;;;;;;5115557;28;19930;-44
2022/12/29 07:35:06;;;;;;;;;;;17.10;82.50;;;;;;5115200;28;20287;-43
2022/12/29 07:37:31;;;;;;;;;;;17.20;82.50;;;;;;5096883;28;19961;-44
2022/12/29 07:39:57;;;;;;;;;;;17.10;82.50;;;;;;5115153;28;20002;-45
2022/12/29 07:42:22;;;;;;;;;;;17.10;83.00;;;;;;5114235;28;19908;-46
2022/12/29 07:44:47;;;;;;;;;;;17.10;82.50;;;;;;5114930;28;19915;-43
2022/12/29 07:47:13;;;;;;;;;;;17.10;82.50;;;;;;5115140;28;20381;-47
2022/12/29 07:49:38;;;;;;;;;;;17.10;82.50;;;;;;5114942;28;19912;-45
2022/12/29 07:52:04;;;;;;;;;;;17.10;82.50;;;;;;5114856;28;19908;-42
2022/12/29 07:54:29;;;;;;;;;;;17.10;82.50;;;;;;5096755;28;19908;-43
2022/12/29 07:56:55;;;;;;;;;;;17.10;82.60;;;;;;5114750;28;20282;-45
2022/12/29 07:59:20;;;;;;;;;;;17.10;82.50;;;;;;5114997;28;19923;-43
2022/12/29 08:01:46;;;;;;;;;;;17.10;82.60;;;;;;5096724;28;19958;-45
2022/12/29 08:04:11;;;;;;;;;;;17.10;82.60;;;;;;5114968;28;20362;-45
2022/12/29 08:06:37;;;;;;;;;;;17.10;82.60;;;;;;5114910;28;20003;-45
2022/12/29 08:09:03;;;;;;;;;;;17.10;82.60;;;;;;5114787;28;19942;-46
2022/12/29 08:11:28;;;;;;;;;;;17.10;82.60;;;;;;5096963;28;20374;-44
2022/12/29 08:13:54;;;;;;;;;;;17.10;82.60;;;;;;5096441;28;19907;-45
2022/12/29 08:16:19;;;;;;;;;;;17.10;82.60;;;;;;5114477;28;19920;-44
2022/12/29 08:18:45;;;;;;;;;;;17.10;82.60;;;;;;5114620;28;19923;-44
2022/12/29 08:21:10;;;;;;;;;;;17.10;82.60;;;;;;5114446;28;19907;-45
2022/12/29 08:23:36;;;;;;;;;;;17.10;82.60;;;;;;5114462;28;20338;-44
2022/12/29 08:26:03;;;;;;;;;;;17.10;82.60;;;;;;5114456;28;19908;-44
2022/12/29 08:28:28;;;;;;;;;;;17.10;82.60;;;;;;5114432;28;19969;-44
2022/12/29 08:30:57;;;;;;;;;;;17.10;82.60;;;;;;5114332;28;19978;-44
2022/12/29 08:33:22;;;;;;;;;;;17.20;82.60;;;;;;5113902;28;20327;-45
2022/12/29 08:35:48;;;;;;;;;;;17.10;82.50;;;;;;5113964;28;19920;-43
2022/12/29 08:38:13;;;;;;;;;;;17.10;82.50;;;;;;5114298;28;20008;-42
2022/12/29 08:40:39;;;;;;;;;;;17.10;82.60;;;;;;5114611;28;20366;-43
2022/12/29 08:43:05;;;;;;;;;;;17.20;82.60;;;;;;5114203;28;20274;-42
2022/12/29 08:45:30;;;;;;;;;;;17.10;82.50;;;;;;5114370;28;19916;-45
2022/12/29 08:47:56;;;;;;;;;;;17.20;82.60;;;;;;5113949;28;20013;-45
2022/12/29 08:50:21;;;;;;;;;;;17.20;82.50;;;;;;5095902;28;19915;-44
2022/12/29 08:52:47;;;;;;;;;;;17.20;82.50;;;;;;5115871;28;19962;-43
2022/12/29 08:55:12;;;;;;;;;;;17.20;82.60;;;;;;5118545;28;20322;-44
2022/12/29 08:57:38;;;;;;;;;;;17.20;82.60;;;;;;5118238;28;19953;-44
2022/12/29 09:00:03;;;;;;;;;;;17.10;82.50;;;;;;5118147;28;19908;-43
2022/12/29 09:02:29;;;;;;;;;;;17.20;82.60;;;;;;5100038;28;19973;-43
2022/12/29 09:04:56;;;;;;;;;;;17.10;82.60;;;;;;5118246;28;19982;-43
2022/12/29 09:07:22;;;;;;;;;;;17.20;82.60;;;;;;5118221;28;19930;-43
2022/12/29 09:09:48;;;;;;;;;;;17.10;83.10;;;;;;5118211;28;20354;-45
2022/12/29 09:12:13;;;;;;;;;;;17.10;82.60;;;;;;5118059;28;20423;-43
2022/12/29 09:14:39;;;;;;;;;;;17.10;82.60;;;;;;5117868;28;19951;-44
2022/12/29 09:19:48;;;;;;;;;;;17.10;82.60;;;;;;5117830;28;19931;-43
2022/12/29 09:22:14;;;;;;;;;;;17.10;82.60;;;;;;5118076;28;20358;-44
2022/12/29 09:24:39;;;;;;;;;;;17.10;82.70;;;;;;5117829;28;19908;-44
2022/12/29 09:27:05;;;;;;;;;;;17.10;82.70;;;;;;5099396;28;19955;-43
2022/12/29 09:29:30;;;;;;;;;;;17.10;82.70;;;;;;5117542;28;19946;-42
2022/12/29 09:31:56;;;;;;;;;;;17.10;82.70;;;;;;5117679;28;19911;-43
2022/12/29 09:34:21;;;;;;;;;;;17.10;82.70;;;;;;5117689;28;19915;-42
2022/12/29 09:36:47;;;;;;;;;;;17.10;82.70;;;;;;5117263;28;19986;-42
2022/12/29 09:39:12;;;;;;;;;;;17.10;82.70;;;;;;5117465;28;19920;-43
2022/12/29 09:41:41;;;;;;;;;;;17.10;82.70;;;;;;5099379;28;19957;-42
2022/12/29 09:44:24;;;;;;;;;;;17.10;82.70;;;;;;5117198;28;19908;-42
2022/12/29 09:46:51;;;;;;;;;;;17.10;82.70;;;;;;5117400;28;19919;-44
2022/12/29 09:49:42;;;;;;;;;;;17.10;82.70;;;;;;5117344;28;19915;-44
2022/12/29 09:52:20;;;;;;;;;;;17.10;82.70;;;;;;5117087;28;19985;-42
2022/12/29 09:54:51;;;;;;;;;;;17.20;82.70;;;;;;5117384;28;19939;-43
2022/12/29 09:57:21;;;;;;;;;;;17.20;82.70;;;;;;5117075;28;19929;-44
2022/12/29 09:59:49;;;;;;;;;;;17.20;82.60;;;;;;5116938;28;20324;-43
2022/12/29 10:02:18;;;;;;;;;;;17.10;83.10;;;;;;5117203;28;19915;-42
2022/12/29 10:04:44;;;;;;;;;;;17.10;82.60;;;;;;5116028;28;19907;-42
2022/12/29 10:07:13;;;;;;;;;;;17.20;82.60;;;;;;5117005;28;20045;-42
2022/12/29 10:10:02;;;;;;;;;;;17.20;82.60;;;;;;5116747;28;20140;-42
2022/12/29 10:12:46;;;;;;;;;;;17.10;82.60;;;;;;5078241;28;19915;-43
2022/12/29 10:15:12;;;;;;;;;;;17.10;82.60;;;;;;5116566;28;20334;-43
2022/12/29 10:17:55;;;;;;;;;;;17.20;82.60;;;;;;5116567;28;19908;-44
2022/12/29 10:20:36;;;;;;;;;;;17.10;82.60;;;;;;5116849;28;19908;-44
2022/12/29 10:23:01;;;;;;;;;;;17.20;82.70;;;;;;5116650;28;19962;-43
2022/12/29 10:25:29;;;;;;;;;;;17.20;82.70;;;;;;5116232;28;19908;-43
2022/12/29 10:27:56;;;;;;;;;;;17.20;82.60;;;;;;5116478;28;19953;-42
2022/12/29 10:30:21;;;;;;;;;;;17.20;82.60;;;;;;5116352;28;19954;-42
2022/12/29 10:32:47;;;;;;;;;;;17.20;82.60;;;;;;5116409;28;20386;-49
2022/12/29 10:35:18;;;;;;;;;;;17.20;82.60;;;;;;5116492;28;19923;-43
2022/12/29 10:37:53;;;;;;;;;;;17.20;82.60;;;;;;5116486;28;19959;-43
2022/12/29 10:40:24;;;;;;;;;;;17.20;82.60;;;;;;5116238;28;20277;-42
2022/12/29 10:42:52;;;;;;;;;;;17.20;82.60;;;;;;5116735;28;20215;-42
2022/12/29 10:45:19;;;;;;;;;;;17.20;82.60;;;;;;5116432;28;19908;-43
2022/12/29 10:47:51;;;;;;;;;;;17.20;82.60;;;;;;5115796;28;19908;-43
2022/12/29 10:50:17;;;;;;;;;;;17.20;82.60;;;;;;5115867;28;19992;-44
2022/12/29 10:52:43;;;;;;;;;;;17.20;82.50;;;;;;5116118;28;19907;-45
2022/12/29 10:55:18;;;;;;;;;;;17.30;82.60;;;;;;5115734;28;20336;-44
2022/12/29 10:57:45;;;;;;;;;;;17.20;82.50;;;;;;5115566;28;19956;-44
2022/12/29 11:00:16;;;;;;;;;;;17.30;82.60;;;;;;5116145;28;19908;-43
2022/12/29 11:02:59;;;;;;;;;;;17.20;82.50;;;;;;5115870;28;19915;-42
2022/12/29 11:05:29;;;;;;;;;;;17.20;82.50;;;;;;5115827;28;19908;-43
2022/12/29 11:07:57;;;;;;;;;;;17.20;82.60;;;;;;5115652;28;19908;-46
2022/12/29 11:10:55;;;;;;;;;;;17.20;82.50;;;;;;5115463;28;19907;-43
2022/12/29 11:13:28;;;;;;;;;;;17.30;82.60;;;;;;5053468;28;20254;-43
2022/12/29 11:15:54;;;;;;;;;;;17.30;82.60;;;;;;5115558;28;19915;-43
2022/12/29 11:18:39;;;;;;;;;;;17.30;82.50;;;;;;5115990;28;19934;-44
2022/12/29 11:21:25;;;;;;;;;;;17.30;82.50;;;;;;5115321;28;19994;-43
2022/12/29 11:24:04;;;;;;;;;;;17.30;82.50;;;;;;5114971;28;19908;-43
2022/12/29 11:26:30;;;;;;;;;;;17.30;82.50;;;;;;5115316;28;20386;-42
2022/12/29 11:29:07;;;;;;;;;;;17.40;82.50;;;;;;5115136;28;19912;-43
2022/12/29 11:31:59;;;;;;;;;;;17.30;82.40;;;;;;5097122;28;19919;-43
2022/12/29 11:34:35;;;;;;;;;;;17.40;82.50;;;;;;5110903;28;19907;-44
2022/12/29 11:37:05;;;;;;;;;;;17.30;82.40;;;;;;5115282;28;19920;-44
2022/12/29 11:39:40;;;;;;;;;;;17.40;82.40;;;;;;5096622;28;20005;-46
2022/12/29 11:42:10;;;;;;;;;;;17.30;82.40;;;;;;5115657;28;20342;-44
2022/12/29 11:44:37;;;;;;;;;;;17.30;82.40;;;;;;5115209;28;19908;-44
2022/12/29 11:47:03;;;;;;;;;;;17.30;82.40;;;;;;5096879;28;19907;-44
2022/12/29 11:49:29;;;;;;;;;;;17.30;82.40;;;;;;5115088;28;19912;-43
2022/12/29 11:51:56;;;;;;;;;;;17.30;82.40;;;;;;5096857;28;20419;-45
2022/12/29 11:54:24;;;;;;;;;;;17.30;82.40;;;;;;5096839;28;19908;-44
2022/12/29 11:56:51;;;;;;;;;;;17.40;82.50;;;;;;5114739;28;19919;-43
2022/12/29 11:59:31;;;;;;;;;;;17.30;82.50;;;;;;5115417;28;20045;-45
2022/12/29 12:01:58;;;;;;;;;;;17.30;82.50;;;;;;5096770;28;19908;-43
2022/12/29 12:04:26;;;;;;;;;;;17.30;82.60;;;;;;5114993;28;20278;-44
2022/12/29 12:07:12;;;;;;;;;;;17.30;82.60;;;;;;5114615;28;19908;-43
2022/12/29 12:09:51;;;;;;;;;;;17.30;82.70;;;;;;5114645;28;20227;-44
2022/12/29 12:12:32;;;;;;;;;;;17.30;82.70;;;;;;5096403;28;20006;-43
2022/12/29 12:14:59;;;;;;;;;;;17.30;82.70;;;;;;5114683;28;19907;-46
2022/12/29 12:17:45;;;;;;;;;;;17.30;82.70;;;;;;5114640;28;20010;-44
2022/12/29 12:20:22;;;;;;;;;;;17.30;82.70;;;;;;5100001;28;19950;-42
2022/12/29 12:23:06;;;;;;;;;;;17.30;82.70;;;;;;5114439;28;20002;-42
2022/12/29 12:25:37;;;;;;;;;;;17.30;82.60;;;;;;5096613;28;20296;-44
2022/12/29 12:28:02;;;;;;;;;;;17.30;82.60;;;;;;5114074;28;20019;-42
2022/12/29 12:30:31;;;;;;;;;;;17.30;82.50;;;;;;5114345;28;19959;-42
2022/12/29 12:32:56;;;;;;;;;;;17.40;82.60;;;;;;5114802;28;19969;-43
2022/12/29 12:35:31;;;;;;;;;;;17.40;82.60;;;;;;5114049;28;19920;-43
2022/12/29 12:38:15;;;;;;;;;;;17.40;82.50;;;;;;5114232;28;20022;-43
2022/12/29 12:40:57;;;;;;;;;;;17.40;82.50;;;;;;5114614;28;19908;-42
2022/12/29 12:43:36;;;;;;;;;;;17.40;82.50;;;;;;5114447;28;19908;-42
2022/12/29 12:46:11;;;;;;;;;;;17.40;82.50;;;;;;5096037;28;19908;-43
2022/12/29 12:48:42;;;;;;;;;;;17.40;82.50;;;;;;5113790;28;20358;-41
2022/12/29 12:51:08;;;;;;;;;;;17.40;82.50;;;;;;5113880;28;19919;-42
2022/12/29 12:53:36;;;;;;;;;;;17.40;82.50;;;;;;5113931;28;19961;-43
2022/12/29 12:56:19;;;;;;;;;;;17.40;82.50;;;;;;5113735;28;20366;-45
2022/12/29 12:58:58;;;;;;;;;;;17.40;82.50;;;;;;5114285;28;19908;-45
2022/12/29 13:01:33;;;;;;;;;;;17.40;82.60;;;;;;5114212;28;19931;-42
2022/12/29 13:04:04;;;;;;;;;;;17.40;82.60;;;;;;5114020;28;19915;-42
2022/12/29 13:06:49;;;;;;;;;;;17.40;82.60;;;;;;5113961;28;20357;-43
2022/12/29 13:09:30;;;;;;;;;;;17.30;82.50;;;;;;5113982;28;20352;-42
2022/12/29 13:12:01;;;;;;;;;;;17.30;82.50;;;;;;5095646;28;19969;-44
2022/12/29 13:14:42;;;;;;;;;;;17.40;82.60;;;;;;5095704;28;19907;-43
2022/12/29 13:17:37;;;;;;;;;;;17.30;82.60;;;;;;5114058;28;19916;-45
2022/12/29 13:20:21;;;;;;;;;;;17.30;82.60;;;;;;5095570;28;20000;-44
2022/12/29 13:22:51;;;;;;;;;;;17.30;82.60;;;;;;5113916;28;19915;-43
2022/12/29 13:25:33;;;;;;;;;;;17.40;82.60;;;;;;5113708;28;19908;-46
2022/12/29 13:28:14;;;;;;;;;;;17.40;82.70;;;;;;5113678;28;20274;-46
2022/12/29 13:30:39;;;;;;;;;;;17.30;82.60;;;;;;5113507;28;19912;-45
2022/12/29 13:33:16;;;;;;;;;;;17.30;82.60;;;;;;5113806;28;19962;-43
2022/12/29 13:35:56;;;;;;;;;;;17.40;82.70;;;;;;5113491;28;20377;-44
2022/12/29 13:38:33;;;;;;;;;;;17.30;82.60;;;;;;5114305;28;20281;-46
2022/12/29 13:41:06;;;;;;;;;;;17.40;82.70;;;;;;5099567;28;20325;-43
2022/12/29 13:43:34;;;;;;;;;;;17.40;82.70;;;;;;5099421;28;19908;-44
2022/12/29 13:46:04;;;;;;;;;;;17.30;82.60;;;;;;5117539;28;19951;-46
2022/12/29 13:48:39;;;;;;;;;;;17.30;82.60;;;;;;5117463;28;19973;-43
2022/12/29 13:51:05;;;;;;;;;;;17.30;82.70;;;;;;5117136;28;19908;-45
2022/12/29 13:53:38;;;;;;;;;;;17.30;82.70;;;;;;5117388;28;19908;-45
2022/12/29 13:56:12;;;;;;;;;;;17.30;82.80;;;;;;5117225;28;19961;-45
2022/12/29 13:58:54;;;;;;;;;;;17.30;82.70;;;;;;5117291;28;20049;-45
2022/12/29 14:01:28;;;;;;;;;;;17.30;82.70;;;;;;5117403;28;19934;-44
2022/12/29 14:03:55;;;;;;;;;;;17.20;82.70;;;;;;5117526;28;19915;-44
2022/12/29 14:06:30;;;;;;;;;;;17.20;82.70;;;;;;5117220;28;19915;-45
2022/12/29 14:08:56;;;;;;;;;;;17.30;82.80;;;;;;5116978;28;20363;-43
2022/12/29 14:11:24;;;;;;;;;;;17.20;82.70;;;;;;5117125;28;19915;-47
2022/12/29 14:13:50;;;;;;;;;;;17.30;82.80;;;;;;5117116;28;19962;-43
2022/12/29 14:16:29;;;;;;;;;;;17.30;82.80;;;;;;5116826;28;19920;-46
2022/12/29 14:18:57;;;;;;;;;;;17.20;82.70;;;;;;5116637;28;19976;-44
2022/12/29 14:21:29;;;;;;;;;;;17.20;82.70;;;;;;5116885;28;20231;-45
2022/12/29 14:24:00;;;;;;;;;;;17.30;82.80;;;;;;5116886;28;19908;-43
2022/12/29 14:26:26;;;;;;;;;;;17.30;82.80;;;;;;5098514;28;19914;-44
2022/12/29 14:28:51;;;;;;;;;;;17.30;82.70;;;;;;5116769;28;19907;-49
2022/12/29 14:31:17;;;;;;;;;;;17.30;82.70;;;;;;5116903;28;19908;-46
2022/12/29 14:34:01;;;;;;;;;;;17.30;82.80;;;;;;5116495;28;20304;-44
2022/12/29 14:36:34;;;;;;;;;;;17.30;82.80;;;;;;5116475;28;19916;-43
2022/12/29 14:38:59;;;;;;;;;;;17.30;82.70;;;;;;5116650;28;19924;-43
2022/12/29 14:41:28;;;;;;;;;;;17.30;82.70;;;;;;5097989;28;20354;-44
2022/12/29 14:43:55;;;;;;;;;;;17.30;82.70;;;;;;5116837;28;19914;-44
2022/12/29 14:46:21;;;;;;;;;;;17.30;82.80;;;;;;5116345;28;19912;-42
2022/12/29 14:48:47;;;;;;;;;;;17.30;82.70;;;;;;5098334;28;19908;-45
2022/12/29 14:51:17;;;;;;;;;;;17.30;82.70;;;;;;5116084;28;20042;-43
2022/12/29 14:53:42;;;;;;;;;;;17.30;82.70;;;;;;5116359;28;19920;-43
2022/12/29 14:56:11;;;;;;;;;;;17.30;82.70;;;;;;5115865;28;20270;-44
2022/12/29 14:58:49;;;;;;;;;;;17.30;82.70;;;;;;5115812;28;20252;-43
2022/12/29 15:01:32;;;;;;;;;;;17.30;82.70;;;;;;5115840;28;19934;-44
2022/12/29 15:04:00;;;;;;;;;;;17.30;82.80;;;;;;5097842;28;20306;-44